createdAt,value
2019-01-02T00:05:26.676Z,4.79
2019-01-02T00:25:36.181Z,5.57
2019-01-02T00:45:45.724Z,5.71
2019-01-02T01:05:55.398Z,5.33
2019-01-02T01:26:05.001Z,4.87
2019-01-02T01:46:14.562Z,5.98
2019-01-02T02:06:24.100Z,4.62
2019-01-02T02:26:35.876Z,5.60
2019-01-02T02:46:37.694Z,6.41
2019-01-02T03:06:37.203Z,5.80
2019-01-02T03:26:46.637Z,5.90
2019-01-02T03:46:58.442Z,5.51
2019-01-02T04:06:57.940Z,4.72
2019-01-02T04:27:07.551Z,4.74
2019-01-02T04:47:17.014Z,6.06
2019-01-02T05:07:26.497Z,7.96
2019-01-02T05:27:38.223Z,6.58
2019-01-02T05:47:37.764Z,7.59
2019-01-02T06:07:49.591Z,10.21
2019-01-02T06:27:49.225Z,7.10
2019-01-02T06:47:58.722Z,9.28
2019-01-02T07:08:08.237Z,8.36
2019-01-02T07:28:17.812Z,9.19
2019-01-02T07:48:27.405Z,7.10
2019-01-02T08:08:39.265Z,8.05
2019-01-02T08:28:38.803Z,8.25
2019-01-02T08:48:48.284Z,7.52
2019-01-02T09:09:00.122Z,8.29
2019-01-02T09:28:59.642Z,6.63
2019-01-02T09:49:09.156Z,7.69
2019-01-02T10:09:18.657Z,7.72
2019-01-02T10:29:33.108Z,8.35
2019-01-02T10:49:32.612Z,11.20
2019-01-02T11:09:44.596Z,8.54
2019-01-02T11:29:46.545Z,8.92
2019-01-02T11:49:46.174Z,8.66
2019-01-02T12:09:55.820Z,9.59
2019-01-02T12:30:05.156Z,11.60
2019-01-02T12:50:14.508Z,12.05
2019-01-02T13:10:26.276Z,9.32
2019-01-02T13:30:25.786Z,8.70
2019-01-02T13:50:35.274Z,5.66
2019-01-02T14:10:44.984Z,3.54
2019-01-02T14:30:54.889Z,4.20
2019-01-02T14:51:04.367Z,3.51
2019-01-02T15:11:14.085Z,3.67
2019-01-02T15:31:28.267Z,3.57
2019-01-02T15:51:27.809Z,4.15
2019-01-02T16:11:37.990Z,4.79
2019-01-02T16:31:38.597Z,2.79
2019-01-02T16:51:44.137Z,2.45
2019-01-02T17:11:43.780Z,2.15
2019-01-02T17:32:01.692Z,3.24
2019-01-02T17:52:08.502Z,3.28
2019-01-02T18:12:14.567Z,3.38
2019-01-02T18:52:28.000Z,2.87
2019-01-02T19:12:34.816Z,2.89
2019-01-02T19:32:41.862Z,2.65
2019-01-02T19:52:46.173Z,3.81
2019-01-02T20:12:45.821Z,3.54
2019-01-02T20:32:55.604Z,4.71
2019-01-02T20:53:05.103Z,5.01
2019-01-02T21:13:14.693Z,5.15
2019-01-02T21:33:24.011Z,4.88
2019-01-02T21:53:33.527Z,4.72
2019-01-02T22:13:43.021Z,4.68
2019-01-02T22:33:57.046Z,4.87
2019-01-02T22:53:56.656Z,4.00
2019-01-02T23:14:06.148Z,4.20
2019-01-02T23:34:15.593Z,4.15
2019-01-02T23:54:25.072Z,3.62
